sensor_id;sensor_type;location;lat;lon;timestamp;P1;durP1;ratioP1;P2;durP2;ratioP2
9938;SDS011;5008;50.656;7.188;2023-02-21T05:09:15;23.70;;;17.57;;
9938;SDS011;5008;50.656;7.188;2023-02-21T05:11:42;22.87;;;16.87;;
9938;SDS011;5008;50.656;7.188;2023-02-21T05:14:09;21.87;;;16.80;;
9938;SDS011;5008;50.656;7.188;2023-02-21T05:16:36;22.50;;;17.33;;
9938;SDS011;5008;50.656;7.188;2023-02-21T05:19:02;21.93;;;16.43;;
9938;SDS011;5008;50.656;7.188;2023-02-21T05:21:32;22.03;;;16.43;;
9938;SDS011;5008;50.656;7.188;2023-02-21T05:24:01;22.63;;;16.57;;
9938;SDS011;5008;50.656;7.188;2023-02-21T05:26:31;20.80;;;15.67;;
9938;SDS011;5008;50.656;7.188;2023-02-21T05:28:59;21.97;;;16.00;;
9938;SDS011;5008;50.656;7.188;2023-02-21T05:31:27;24.00;;;15.87;;
9938;SDS011;5008;50.656;7.188;2023-02-21T05:33:55;21.30;;;15.40;;
9938;SDS011;5008;50.656;7.188;2023-02-21T05:36:22;19.27;;;14.80;;
9938;SDS011;5008;50.656;7.188;2023-02-21T05:38:50;20.80;;;15.13;;
9938;SDS011;5008;50.656;7.188;2023-02-21T05:41:18;20.63;;;15.57;;
9938;SDS011;5008;50.656;7.188;2023-02-21T05:43:47;21.43;;;16.13;;
9938;SDS011;5008;50.656;7.188;2023-02-21T05:46:19;20.20;;;14.90;;
9938;SDS011;5008;50.656;7.188;2023-02-21T05:48:47;21.30;;;15.43;;
9938;SDS011;5008;50.656;7.188;2023-02-21T05:51:14;22.43;;;15.07;;
9938;SDS011;5008;50.656;7.188;2023-02-21T05:53:42;21.10;;;15.20;;
9938;SDS011;5008;50.656;7.188;2023-02-21T05:56:09;21.30;;;15.20;;
9938;SDS011;5008;50.656;7.188;2023-02-21T05:58:36;21.47;;;15.87;;
9938;SDS011;5008;50.656;7.188;2023-02-21T06:01:04;17.90;;;14.40;;
9938;SDS011;5008;50.656;7.188;2023-02-21T06:03:31;21.80;;;14.60;;
9938;SDS011;5008;50.656;7.188;2023-02-21T06:05:58;21.13;;;15.50;;
9938;SDS011;5008;50.656;7.188;2023-02-21T06:08:25;19.83;;;14.87;;
9938;SDS011;5008;50.656;7.188;2023-02-21T06:10:52;21.10;;;15.70;;
9938;SDS011;5008;50.656;7.188;2023-02-21T06:13:19;20.73;;;15.43;;
9938;SDS011;5008;50.656;7.188;2023-02-21T06:15:46;17.93;;;14.77;;
9938;SDS011;5008;50.656;7.188;2023-02-21T06:18:18;22.73;;;15.87;;
9938;SDS011;5008;50.656;7.188;2023-02-21T06:20:45;22.30;;;15.27;;
9938;SDS011;5008;50.656;7.188;2023-02-21T06:23:12;21.93;;;16.90;;
9938;SDS011;5008;50.656;7.188;2023-02-21T06:25:39;20.37;;;15.03;;
9938;SDS011;5008;50.656;7.188;2023-02-21T06:28:05;21.87;;;15.27;;
9938;SDS011;5008;50.656;7.188;2023-02-21T06:30:33;20.70;;;15.17;;
9938;SDS011;5008;50.656;7.188;2023-02-21T06:32:59;23.40;;;16.03;;
9938;SDS011;5008;50.656;7.188;2023-02-21T06:35:28;21.17;;;15.70;;
9938;SDS011;5008;50.656;7.188;2023-02-21T06:37:55;21.30;;;15.53;;
9938;SDS011;5008;50.656;7.188;2023-02-21T06:40:22;20.73;;;16.10;;
9938;SDS011;5008;50.656;7.188;2023-02-21T06:42:49;20.37;;;15.10;;
9938;SDS011;5008;50.656;7.188;2023-02-21T06:45:15;21.17;;;15.40;;
9938;SDS011;5008;50.656;7.188;2023-02-21T06:47:42;20.70;;;15.53;;
9938;SDS011;5008;50.656;7.188;2023-02-21T06:50:09;22.10;;;15.57;;
9938;SDS011;5008;50.656;7.188;2023-02-21T06:52:37;18.10;;;14.30;;
9938;SDS011;5008;50.656;7.188;2023-02-21T06:55:04;19.33;;;14.23;;
9938;SDS011;5008;50.656;7.188;2023-02-21T06:57:32;18.83;;;14.97;;
9938;SDS011;5008;50.656;7.188;2023-02-21T06:59:59;21.27;;;14.57;;
9938;SDS011;5008;50.656;7.188;2023-02-21T07:02:25;20.47;;;14.23;;
9938;SDS011;5008;50.656;7.188;2023-02-21T07:04:52;19.40;;;14.93;;
9938;SDS011;5008;50.656;7.188;2023-02-21T07:07:19;20.63;;;14.20;;
9938;SDS011;5008;50.656;7.188;2023-02-21T07:09:47;22.50;;;14.97;;
9938;SDS011;5008;50.656;7.188;2023-02-21T07:12:14;18.10;;;14.57;;
9938;SDS011;5008;50.656;7.188;2023-02-21T07:14:41;20.00;;;14.57;;
9938;SDS011;5008;50.656;7.188;2023-02-21T07:17:08;20.00;;;14.43;;
9938;SDS011;5008;50.656;7.188;2023-02-21T07:19:34;22.07;;;15.33;;
9938;SDS011;5008;50.656;7.188;2023-02-21T07:22:01;20.47;;;14.77;;
9938;SDS011;5008;50.656;7.188;2023-02-21T07:24:28;21.63;;;15.03;;
9938;SDS011;5008;50.656;7.188;2023-02-21T07:26:56;20.43;;;14.80;;
9938;SDS011;5008;50.656;7.188;2023-02-21T07:29:23;21.00;;;15.30;;
9938;SDS011;5008;50.656;7.188;2023-02-21T07:31:51;22.20;;;15.93;;
9938;SDS011;5008;50.656;7.188;2023-02-21T07:34:17;20.90;;;15.23;;
9938;SDS011;5008;50.656;7.188;2023-02-21T07:36:46;20.57;;;15.30;;
9938;SDS011;5008;50.656;7.188;2023-02-21T07:39:13;22.70;;;15.77;;
9938;SDS011;5008;50.656;7.188;2023-02-21T07:41:40;23.27;;;15.63;;
9938;SDS011;5008;50.656;7.188;2023-02-21T07:44:08;20.97;;;15.47;;
9938;SDS011;5008;50.656;7.188;2023-02-21T07:46:35;22.43;;;15.67;;
9938;SDS011;5008;50.656;7.188;2023-02-21T07:49:02;20.93;;;15.43;;
9938;SDS011;5008;50.656;7.188;2023-02-21T07:51:30;21.47;;;15.87;;
9938;SDS011;5008;50.656;7.188;2023-02-21T07:53:56;21.30;;;15.40;;
9938;SDS011;5008;50.656;7.188;2023-02-21T07:56:26;21.03;;;15.03;;
9938;SDS011;5008;50.656;7.188;2023-02-21T07:58:55;19.40;;;14.90;;
9938;SDS011;5008;50.656;7.188;2023-02-21T08:01:24;20.43;;;14.57;;
9938;SDS011;5008;50.656;7.188;2023-02-21T08:03:52;20.37;;;15.50;;
9938;SDS011;5008;50.656;7.188;2023-02-21T08:06:19;19.40;;;14.87;;
9938;SDS011;5008;50.656;7.188;2023-02-21T08:08:46;19.70;;;15.07;;
9938;SDS011;5008;50.656;7.188;2023-02-21T08:11:12;19.27;;;14.37;;
9938;SDS011;5008;50.656;7.188;2023-02-21T08:13:39;19.53;;;15.73;;
9938;SDS011;5008;50.656;7.188;2023-02-21T08:16:06;21.80;;;16.07;;
9938;SDS011;5008;50.656;7.188;2023-02-21T08:18:34;21.17;;;15.40;;
9938;SDS011;5008;50.656;7.188;2023-02-21T08:21:01;22.10;;;16.53;;
9938;SDS011;5008;50.656;7.188;2023-02-21T08:23:28;20.00;;;15.07;;
9938;SDS011;5008;50.656;7.188;2023-02-21T08:25:55;17.27;;;13.77;;
9938;SDS011;5008;50.656;7.188;2023-02-21T08:28:22;22.93;;;15.13;;
9938;SDS011;5008;50.656;7.188;2023-02-21T08:30:48;19.67;;;15.20;;
9938;SDS011;5008;50.656;7.188;2023-02-21T08:33:16;19.53;;;14.67;;
9938;SDS011;5008;50.656;7.188;2023-02-21T08:35:44;18.60;;;13.70;;
9938;SDS011;5008;50.656;7.188;2023-02-21T08:38:11;22.67;;;15.50;;
9938;SDS011;5008;50.656;7.188;2023-02-21T08:40:38;19.53;;;14.90;;
9938;SDS011;5008;50.656;7.188;2023-02-21T08:43:05;19.63;;;14.40;;
9938;SDS011;5008;50.656;7.188;2023-02-21T08:45:32;19.63;;;15.03;;
9938;SDS011;5008;50.656;7.188;2023-02-21T08:47:59;17.63;;;13.90;;
9938;SDS011;5008;50.656;7.188;2023-02-21T08:50:28;20.13;;;13.83;;
9938;SDS011;5008;50.656;7.188;2023-02-21T08:52:57;17.73;;;14.67;;
9938;SDS011;5008;50.656;7.188;2023-02-21T08:55:24;18.37;;;13.97;;
9938;SDS011;5008;50.656;7.188;2023-02-21T08:57:52;16.80;;;13.40;;
9938;SDS011;5008;50.656;7.188;2023-02-21T09:00:20;17.00;;;12.67;;
9938;SDS011;5008;50.656;7.188;2023-02-21T09:02:48;18.40;;;13.97;;
9938;SDS011;5008;50.656;7.188;2023-02-21T09:05:16;14.63;;;12.13;;
9938;SDS011;5008;50.656;7.188;2023-02-21T09:07:46;18.47;;;13.30;;
9938;SDS011;5008;50.656;7.188;2023-02-21T09:10:15;17.40;;;13.40;;
9938;SDS011;5008;50.656;7.188;2023-02-21T09:12:43;15.67;;;12.20;;
9938;SDS011;5008;50.656;7.188;2023-02-21T09:15:09;15.47;;;12.73;;
9938;SDS011;5008;50.656;7.188;2023-02-21T09:17:39;15.10;;;12.37;;
9938;SDS011;5008;50.656;7.188;2023-02-21T09:20:07;14.70;;;11.87;;
9938;SDS011;5008;50.656;7.188;2023-02-21T09:22:38;15.10;;;12.40;;
9938;SDS011;5008;50.656;7.188;2023-02-21T09:25:10;18.37;;;13.33;;
9938;SDS011;5008;50.656;7.188;2023-02-21T09:27:39;21.07;;;12.80;;
9938;SDS011;5008;50.656;7.188;2023-02-21T09:30:07;19.00;;;13.33;;
9938;SDS011;5008;50.656;7.188;2023-02-21T09:32:42;16.10;;;12.40;;
9938;SDS011;5008;50.656;7.188;2023-02-21T09:35:10;15.27;;;11.27;;
9938;SDS011;5008;50.656;7.188;2023-02-21T09:37:41;16.10;;;11.73;;
9938;SDS011;5008;50.656;7.188;2023-02-21T09:40:14;17.67;;;13.47;;
9938;SDS011;5008;50.656;7.188;2023-02-21T09:42:49;15.60;;;12.30;;
9938;SDS011;5008;50.656;7.188;2023-02-21T09:45:18;17.17;;;12.63;;
9938;SDS011;5008;50.656;7.188;2023-02-21T09:47:48;25.13;;;12.37;;
9938;SDS011;5008;50.656;7.188;2023-02-21T09:50:22;19.37;;;11.77;;
9938;SDS011;5008;50.656;7.188;2023-02-21T09:52:54;20.20;;;12.57;;
9938;SDS011;5008;50.656;7.188;2023-02-21T09:55:26;18.07;;;11.80;;
9938;SDS011;5008;50.656;7.188;2023-02-21T09:57:56;20.40;;;12.00;;
9938;SDS011;5008;50.656;7.188;2023-02-21T10:00:25;16.97;;;11.83;;
9938;SDS011;5008;50.656;7.188;2023-02-21T10:02:58;16.23;;;12.27;;
9938;SDS011;5008;50.656;7.188;2023-02-21T10:05:38;16.27;;;12.30;;
9938;SDS011;5008;50.656;7.188;2023-02-21T10:08:13;15.27;;;11.43;;
9938;SDS011;5008;50.656;7.188;2023-02-21T10:10:49;13.30;;;10.77;;
9938;SDS011;5008;50.656;7.188;2023-02-21T10:13:26;15.30;;;10.83;;
9938;SDS011;5008;50.656;7.188;2023-02-21T10:16:04;15.40;;;11.13;;
9938;SDS011;5008;50.656;7.188;2023-02-21T10:18:37;14.67;;;10.93;;
9938;SDS011;5008;50.656;7.188;2023-02-21T10:21:11;14.13;;;10.77;;
9938;SDS011;5008;50.656;7.188;2023-02-21T10:23:42;13.80;;;10.90;;
9938;SDS011;5008;50.656;7.188;2023-02-21T10:26:12;13.07;;;10.23;;
9938;SDS011;5008;50.656;7.188;2023-02-21T10:28:42;13.50;;;10.03;;
9938;SDS011;5008;50.656;7.188;2023-02-21T10:31:11;12.67;;;9.97;;
9938;SDS011;5008;50.656;7.188;2023-02-21T10:33:42;17.77;;;10.37;;
9938;SDS011;5008;50.656;7.188;2023-02-21T10:36:10;14.73;;;9.67;;
9938;SDS011;5008;50.656;7.188;2023-02-21T10:38:38;18.33;;;9.43;;
9938;SDS011;5008;50.656;7.188;2023-02-21T10:41:08;12.77;;;9.87;;
9938;SDS011;5008;50.656;7.188;2023-02-21T10:43:37;15.13;;;9.70;;
9938;SDS011;5008;50.656;7.188;2023-02-21T10:46:12;13.93;;;9.87;;
9938;SDS011;5008;50.656;7.188;2023-02-21T10:48:45;10.97;;;9.37;;
9938;SDS011;5008;50.656;7.188;2023-02-21T10:51:16;13.07;;;9.30;;
9938;SDS011;5008;50.656;7.188;2023-02-21T10:53:53;11.23;;;9.40;;
9938;SDS011;5008;50.656;7.188;2023-02-21T10:56:41;10.77;;;8.57;;
9938;SDS011;5008;50.656;7.188;2023-02-21T10:59:08;10.17;;;8.53;;
9938;SDS011;5008;50.656;7.188;2023-02-21T11:01:46;12.33;;;9.00;;
9938;SDS011;5008;50.656;7.188;2023-02-21T11:04:26;11.70;;;9.17;;
9938;SDS011;5008;50.656;7.188;2023-02-21T11:06:56;11.43;;;8.73;;
9938;SDS011;5008;50.656;7.188;2023-02-21T11:09:33;11.97;;;8.90;;
9938;SDS011;5008;50.656;7.188;2023-02-21T11:12:04;12.37;;;9.90;;
9938;SDS011;5008;50.656;7.188;2023-02-21T11:14:43;13.10;;;8.70;;
9938;SDS011;5008;50.656;7.188;2023-02-21T11:17:28;11.10;;;9.03;;
9938;SDS011;5008;50.656;7.188;2023-02-21T11:19:56;11.20;;;9.27;;
9938;SDS011;5008;50.656;7.188;2023-02-21T11:22:35;11.00;;;9.67;;
9938;SDS011;5008;50.656;7.188;2023-02-21T11:25:06;11.00;;;9.13;;
9938;SDS011;5008;50.656;7.188;2023-02-21T11:27:43;12.30;;;9.93;;
9938;SDS011;5008;50.656;7.188;2023-02-21T11:30:12;12.10;;;8.87;;
9938;SDS011;5008;50.656;7.188;2023-02-21T11:32:47;12.07;;;9.23;;
9938;SDS011;5008;50.656;7.188;2023-02-21T11:35:21;12.80;;;9.60;;
9938;SDS011;5008;50.656;7.188;2023-02-21T11:37:51;13.03;;;9.23;;
9938;SDS011;5008;50.656;7.188;2023-02-21T11:40:21;10.07;;;8.60;;
9938;SDS011;5008;50.656;7.188;2023-02-21T11:45:37;10.80;;;8.00;;
9938;SDS011;5008;50.656;7.188;2023-02-21T11:48:10;8.17;;;6.80;;
9938;SDS011;5008;50.656;7.188;2023-02-21T11:50:41;8.70;;;6.50;;
9938;SDS011;5008;50.656;7.188;2023-02-21T11:53:17;10.83;;;7.17;;
9938;SDS011;5008;50.656;7.188;2023-02-21T11:55:50;9.80;;;7.10;;
9938;SDS011;5008;50.656;7.188;2023-02-21T11:58:26;8.93;;;6.50;;
9938;SDS011;5008;50.656;7.188;2023-02-21T12:00:58;9.47;;;7.03;;
9938;SDS011;5008;50.656;7.188;2023-02-21T12:03:49;9.93;;;6.28;;
9938;SDS011;5008;50.656;7.188;2023-02-21T12:06:40;8.68;;;6.75;;
9938;SDS011;5008;50.656;7.188;2023-02-21T12:09:17;7.05;;;6.13;;
9938;SDS011;5008;50.656;7.188;2023-02-21T12:11:53;7.68;;;6.38;;
9938;SDS011;5008;50.656;7.188;2023-02-21T12:14:31;7.13;;;6.38;;
9938;SDS011;5008;50.656;7.188;2023-02-21T12:17:10;7.15;;;6.45;;
9938;SDS011;5008;50.656;7.188;2023-02-21T12:19:47;7.35;;;6.18;;
9938;SDS011;5008;50.656;7.188;2023-02-21T12:22:34;7.13;;;6.40;;
9938;SDS011;5008;50.656;7.188;2023-02-21T12:25:15;6.47;;;5.82;;
9938;SDS011;5008;50.656;7.188;2023-02-21T12:27:47;7.00;;;6.30;;
9938;SDS011;5008;50.656;7.188;2023-02-21T12:30:26;5.95;;;5.38;;
9938;SDS011;5008;50.656;7.188;2023-02-21T12:33:08;4.88;;;4.03;;
9938;SDS011;5008;50.656;7.188;2023-02-21T12:35:55;7.63;;;6.72;;
9938;SDS011;5008;50.656;7.188;2023-02-21T12:38:56;6.65;;;6.00;;
9938;SDS011;5008;50.656;7.188;2023-02-21T12:41:48;7.40;;;5.63;;
9938;SDS011;5008;50.656;7.188;2023-02-21T12:44:32;7.65;;;5.97;;
9938;SDS011;5008;50.656;7.188;2023-02-21T12:47:09;9.75;;;8.75;;
9938;SDS011;5008;50.656;7.188;2023-02-21T12:49:43;7.20;;;6.50;;
9938;SDS011;5008;50.656;7.188;2023-02-21T12:52:15;6.75;;;6.15;;
9938;SDS011;5008;50.656;7.188;2023-02-21T12:54:48;6.60;;;5.55;;
9938;SDS011;5008;50.656;7.188;2023-02-21T12:57:21;6.00;;;5.50;;
9938;SDS011;5008;50.656;7.188;2023-02-21T12:59:54;7.07;;;6.43;;
9938;SDS011;5008;50.656;7.188;2023-02-21T13:02:35;5.78;;;4.95;;
9938;SDS011;5008;50.656;7.188;2023-02-21T13:05:12;7.50;;;6.30;;
9938;SDS011;5008;50.656;7.188;2023-02-21T13:07:42;6.30;;;5.43;;
9938;SDS011;5008;50.656;7.188;2023-02-21T13:10:14;4.63;;;4.22;;
9938;SDS011;5008;50.656;7.188;2023-02-21T13:12:44;6.38;;;4.85;;
9938;SDS011;5008;50.656;7.188;2023-02-21T13:15:15;5.57;;;4.88;;
9938;SDS011;5008;50.656;7.188;2023-02-21T13:17:50;6.28;;;5.20;;
9938;SDS011;5008;50.656;7.188;2023-02-21T13:20:22;5.60;;;4.47;;
9938;SDS011;5008;50.656;7.188;2023-02-21T13:22:52;6.13;;;4.90;;
9938;SDS011;5008;50.656;7.188;2023-02-21T13:25:46;4.95;;;4.15;;
9938;SDS011;5008;50.656;7.188;2023-02-21T13:28:23;4.65;;;4.20;;
9938;SDS011;5008;50.656;7.188;2023-02-21T13:30:54;5.35;;;4.40;;
9938;SDS011;5008;50.656;7.188;2023-02-21T13:33:27;4.70;;;4.30;;
9938;SDS011;5008;50.656;7.188;2023-02-21T13:35:56;3.95;;;3.60;;
9938;SDS011;5008;50.656;7.188;2023-02-21T13:38:25;9.57;;;3.63;;
9938;SDS011;5008;50.656;7.188;2023-02-21T13:41:01;5.13;;;3.53;;
9938;SDS011;5008;50.656;7.188;2023-02-21T13:43:31;6.47;;;3.63;;
9938;SDS011;5008;50.656;7.188;2023-02-21T13:51:50;2.50;;;2.30;;
9938;SDS011;5008;50.656;7.188;2023-02-21T13:54:20;2.33;;;2.13;;
9938;SDS011;5008;50.656;7.188;2023-02-21T13:56:49;4.45;;;2.55;;
9938;SDS011;5008;50.656;7.188;2023-02-21T13:59:29;2.80;;;2.60;;
9938;SDS011;5008;50.656;7.188;2023-02-21T14:04:53;3.58;;;2.58;;
9938;SDS011;5008;50.656;7.188;2023-02-21T14:07:42;2.80;;;2.50;;
9938;SDS011;5008;50.656;7.188;2023-02-21T14:10:13;2.80;;;2.60;;
9938;SDS011;5008;50.656;7.188;2023-02-21T14:12:50;3.90;;;2.80;;
9938;SDS011;5008;50.656;7.188;2023-02-21T14:15:21;2.63;;;2.42;;
9938;SDS011;5008;50.656;7.188;2023-02-21T14:17:49;2.40;;;2.20;;
9938;SDS011;5008;50.656;7.188;2023-02-21T14:20:18;2.97;;;2.30;;
9938;SDS011;5008;50.656;7.188;2023-02-21T14:22:49;2.42;;;2.22;;
9938;SDS011;5008;50.656;7.188;2023-02-21T14:25:18;3.08;;;2.60;;
9938;SDS011;5008;50.656;7.188;2023-02-21T14:27:48;3.60;;;2.75;;
9938;SDS011;5008;50.656;7.188;2023-02-21T14:30:28;2.58;;;2.30;;
9938;SDS011;5008;50.656;7.188;2023-02-21T14:32:59;2.78;;;2.42;;
9938;SDS011;5008;50.656;7.188;2023-02-21T14:35:50;2.55;;;2.30;;
9938;SDS011;5008;50.656;7.188;2023-02-21T14:38:26;2.65;;;2.45;;
9938;SDS011;5008;50.656;7.188;2023-02-21T14:41:01;2.63;;;2.42;;
9938;SDS011;5008;50.656;7.188;2023-02-21T14:43:48;2.40;;;2.20;;
9938;SDS011;5008;50.656;7.188;2023-02-21T14:49:32;5.63;;;2.50;;
9938;SDS011;5008;50.656;7.188;2023-02-21T14:52:39;2.30;;;2.10;;
9938;SDS011;5008;50.656;7.188;2023-02-21T15:01:15;2.60;;;2.40;;
9938;SDS011;5008;50.656;7.188;2023-02-21T15:03:59;2.50;;;2.30;;
9938;SDS011;5008;50.656;7.188;2023-02-21T15:06:33;2.30;;;2.10;;
9938;SDS011;5008;50.656;7.188;2023-02-21T15:09:10;3.53;;;3.22;;
9938;SDS011;5008;50.656;7.188;2023-02-21T15:11:38;9.02;;;8.00;;
9938;SDS011;5008;50.656;7.188;2023-02-21T15:14:13;10.77;;;9.45;;
9938;SDS011;5008;50.656;7.188;2023-02-21T15:16:47;12.02;;;8.07;;
9938;SDS011;5008;50.656;7.188;2023-02-21T15:19:23;8.35;;;6.53;;
9938;SDS011;5008;50.656;7.188;2023-02-21T15:22:19;10.82;;;7.90;;
9938;SDS011;5008;50.656;7.188;2023-02-21T15:25:21;15.27;;;10.23;;
9938;SDS011;5008;50.656;7.188;2023-02-21T15:28:21;13.40;;;11.88;;
9938;SDS011;5008;50.656;7.188;2023-02-21T15:30:57;12.88;;;10.60;;
9938;SDS011;5008;50.656;7.188;2023-02-21T15:33:40;13.93;;;12.30;;
9938;SDS011;5008;50.656;7.188;2023-02-21T15:36:26;16.35;;;12.90;;
9938;SDS011;5008;50.656;7.188;2023-02-21T15:39:09;13.98;;;10.82;;
9938;SDS011;5008;50.656;7.188;2023-02-21T17:25:14;34.03;;;22.13;;
9938;SDS011;5008;50.656;7.188;2023-02-21T17:27:41;32.50;;;22.17;;
9938;SDS011;5008;50.656;7.188;2023-02-21T17:30:08;32.00;;;22.30;;
9938;SDS011;5008;50.656;7.188;2023-02-21T17:32:36;33.37;;;23.07;;
9938;SDS011;5008;50.656;7.188;2023-02-21T17:35:03;35.90;;;23.40;;
9938;SDS011;5008;50.656;7.188;2023-02-21T17:37:30;36.77;;;25.37;;
9938;SDS011;5008;50.656;7.188;2023-02-21T17:39:57;38.30;;;23.60;;
9938;SDS011;5008;50.656;7.188;2023-02-21T17:42:25;36.17;;;23.57;;
9938;SDS011;5008;50.656;7.188;2023-02-21T17:44:52;32.23;;;23.47;;
9938;SDS011;5008;50.656;7.188;2023-02-21T17:47:20;37.23;;;24.83;;
9938;SDS011;5008;50.656;7.188;2023-02-21T17:49:48;41.53;;;26.23;;
9938;SDS011;5008;50.656;7.188;2023-02-21T17:52:18;41.83;;;26.80;;
9938;SDS011;5008;50.656;7.188;2023-02-21T17:54:45;45.60;;;27.43;;
9938;SDS011;5008;50.656;7.188;2023-02-21T17:57:12;45.27;;;28.50;;
9938;SDS011;5008;50.656;7.188;2023-02-21T17:59:40;41.47;;;27.83;;
9938;SDS011;5008;50.656;7.188;2023-02-21T18:02:08;46.37;;;30.03;;
9938;SDS011;5008;50.656;7.188;2023-02-21T18:04:35;43.20;;;27.77;;
9938;SDS011;5008;50.656;7.188;2023-02-21T18:07:02;47.60;;;29.17;;
9938;SDS011;5008;50.656;7.188;2023-02-21T18:09:29;60.67;;;32.40;;
9938;SDS011;5008;50.656;7.188;2023-02-21T18:11:57;52.10;;;31.30;;
9938;SDS011;5008;50.656;7.188;2023-02-21T18:14:25;50.70;;;30.40;;
9938;SDS011;5008;50.656;7.188;2023-02-21T18:16:55;51.60;;;30.47;;
9938;SDS011;5008;50.656;7.188;2023-02-21T18:19:22;49.23;;;30.43;;
9938;SDS011;5008;50.656;7.188;2023-02-21T18:21:49;51.90;;;29.70;;
9938;SDS011;5008;50.656;7.188;2023-02-21T18:24:16;49.30;;;29.43;;
9938;SDS011;5008;50.656;7.188;2023-02-21T18:26:45;52.43;;;30.60;;
9938;SDS011;5008;50.656;7.188;2023-02-21T18:29:13;50.27;;;29.93;;
9938;SDS011;5008;50.656;7.188;2023-02-21T18:31:40;50.60;;;29.57;;
9938;SDS011;5008;50.656;7.188;2023-02-21T18:34:08;48.40;;;30.80;;
9938;SDS011;5008;50.656;7.188;2023-02-21T18:36:35;51.47;;;30.10;;
9938;SDS011;5008;50.656;7.188;2023-02-21T18:39:04;49.53;;;30.47;;
9938;SDS011;5008;50.656;7.188;2023-02-21T18:41:32;49.67;;;30.90;;
9938;SDS011;5008;50.656;7.188;2023-02-21T18:43:59;50.90;;;29.10;;
9938;SDS011;5008;50.656;7.188;2023-02-21T18:46:26;49.43;;;29.10;;
9938;SDS011;5008;50.656;7.188;2023-02-21T18:48:54;49.13;;;28.17;;
9938;SDS011;5008;50.656;7.188;2023-02-21T18:51:22;49.27;;;29.93;;
9938;SDS011;5008;50.656;7.188;2023-02-21T18:53:49;43.13;;;26.80;;
9938;SDS011;5008;50.656;7.188;2023-02-21T18:56:17;44.03;;;26.20;;
9938;SDS011;5008;50.656;7.188;2023-02-21T18:58:45;45.07;;;27.57;;
9938;SDS011;5008;50.656;7.188;2023-02-21T19:01:13;54.67;;;28.57;;
9938;SDS011;5008;50.656;7.188;2023-02-21T19:03:42;44.83;;;27.07;;
9938;SDS011;5008;50.656;7.188;2023-02-21T19:06:11;44.70;;;27.40;;
9938;SDS011;5008;50.656;7.188;2023-02-21T19:08:42;50.23;;;27.50;;
9938;SDS011;5008;50.656;7.188;2023-02-21T19:11:10;46.13;;;30.50;;
9938;SDS011;5008;50.656;7.188;2023-02-21T19:16:25;52.57;;;30.50;;
9938;SDS011;5008;50.656;7.188;2023-02-21T19:18:52;46.57;;;28.37;;
9938;SDS011;5008;50.656;7.188;2023-02-21T19:21:20;46.60;;;28.50;;
9938;SDS011;5008;50.656;7.188;2023-02-21T19:23:48;47.37;;;28.03;;
9938;SDS011;5008;50.656;7.188;2023-02-21T19:26:16;46.43;;;29.27;;
9938;SDS011;5008;50.656;7.188;2023-02-21T19:28:43;49.90;;;28.27;;
9938;SDS011;5008;50.656;7.188;2023-02-21T19:31:11;48.33;;;27.57;;
9938;SDS011;5008;50.656;7.188;2023-02-21T19:33:42;47.43;;;27.80;;
9938;SDS011;5008;50.656;7.188;2023-02-21T19:36:09;50.07;;;27.10;;
9938;SDS011;5008;50.656;7.188;2023-02-21T19:38:36;47.50;;;28.40;;
9938;SDS011;5008;50.656;7.188;2023-02-21T19:41:05;45.10;;;27.37;;
9938;SDS011;5008;50.656;7.188;2023-02-21T19:43:32;47.00;;;27.47;;
9938;SDS011;5008;50.656;7.188;2023-02-21T19:45:59;49.30;;;29.87;;
9938;SDS011;5008;50.656;7.188;2023-02-21T19:48:26;47.77;;;29.23;;
9938;SDS011;5008;50.656;7.188;2023-02-21T19:50:53;53.40;;;30.47;;
9938;SDS011;5008;50.656;7.188;2023-02-21T19:53:20;54.87;;;31.90;;
9938;SDS011;5008;50.656;7.188;2023-02-21T19:55:47;51.30;;;30.73;;
9938;SDS011;5008;50.656;7.188;2023-02-21T19:58:15;55.47;;;31.07;;
9938;SDS011;5008;50.656;7.188;2023-02-21T20:00:43;51.03;;;29.37;;
9938;SDS011;5008;50.656;7.188;2023-02-21T20:03:10;51.10;;;30.80;;
9938;SDS011;5008;50.656;7.188;2023-02-21T20:05:37;48.47;;;28.87;;
9938;SDS011;5008;50.656;7.188;2023-02-21T20:08:04;48.73;;;30.93;;
9938;SDS011;5008;50.656;7.188;2023-02-21T20:10:31;49.87;;;30.83;;
9938;SDS011;5008;50.656;7.188;2023-02-21T20:12:57;52.37;;;32.57;;
9938;SDS011;5008;50.656;7.188;2023-02-21T20:15:27;47.83;;;29.87;;
9938;SDS011;5008;50.656;7.188;2023-02-21T20:17:54;44.60;;;28.43;;
9938;SDS011;5008;50.656;7.188;2023-02-21T20:20:21;45.30;;;29.70;;
9938;SDS011;5008;50.656;7.188;2023-02-21T20:22:48;48.87;;;29.87;;
9938;SDS011;5008;50.656;7.188;2023-02-21T20:25:14;42.47;;;28.83;;
9938;SDS011;5008;50.656;7.188;2023-02-21T20:27:42;44.57;;;28.60;;
9938;SDS011;5008;50.656;7.188;2023-02-21T20:30:09;46.40;;;28.87;;
9938;SDS011;5008;50.656;7.188;2023-02-21T20:32:38;46.40;;;28.63;;
9938;SDS011;5008;50.656;7.188;2023-02-21T20:35:06;47.47;;;28.40;;
9938;SDS011;5008;50.656;7.188;2023-02-21T20:37:34;43.03;;;28.23;;
9938;SDS011;5008;50.656;7.188;2023-02-21T20:40:01;42.30;;;28.30;;
9938;SDS011;5008;50.656;7.188;2023-02-21T20:42:30;40.60;;;26.30;;
9938;SDS011;5008;50.656;7.188;2023-02-21T20:44:56;46.20;;;27.50;;
9938;SDS011;5008;50.656;7.188;2023-02-21T20:47:25;37.87;;;26.03;;
9938;SDS011;5008;50.656;7.188;2023-02-21T20:49:54;41.97;;;27.13;;
9938;SDS011;5008;50.656;7.188;2023-02-21T20:52:21;42.03;;;26.43;;
9938;SDS011;5008;50.656;7.188;2023-02-21T20:54:48;41.93;;;26.73;;
9938;SDS011;5008;50.656;7.188;2023-02-21T20:57:15;39.33;;;25.90;;
9938;SDS011;5008;50.656;7.188;2023-02-21T20:59:42;41.27;;;25.77;;
9938;SDS011;5008;50.656;7.188;2023-02-21T21:02:11;41.60;;;26.13;;
9938;SDS011;5008;50.656;7.188;2023-02-21T21:04:40;38.07;;;25.13;;
9938;SDS011;5008;50.656;7.188;2023-02-21T21:07:10;42.10;;;26.13;;
9938;SDS011;5008;50.656;7.188;2023-02-21T21:09:39;44.60;;;26.77;;
9938;SDS011;5008;50.656;7.188;2023-02-21T21:12:09;42.53;;;26.30;;
9938;SDS011;5008;50.656;7.188;2023-02-21T21:14:38;37.20;;;25.17;;
9938;SDS011;5008;50.656;7.188;2023-02-21T21:17:07;41.73;;;26.37;;
9938;SDS011;5008;50.656;7.188;2023-02-21T21:19:37;51.30;;;27.53;;
9938;SDS011;5008;50.656;7.188;2023-02-21T21:22:06;44.47;;;25.83;;
9938;SDS011;5008;50.656;7.188;2023-02-21T21:24:35;43.83;;;26.67;;
9938;SDS011;5008;50.656;7.188;2023-02-21T21:27:03;46.90;;;26.87;;
9938;SDS011;5008;50.656;7.188;2023-02-21T21:29:34;43.73;;;26.03;;
9938;SDS011;5008;50.656;7.188;2023-02-21T21:32:01;44.80;;;26.87;;
9938;SDS011;5008;50.656;7.188;2023-02-21T21:34:30;42.23;;;26.50;;
9938;SDS011;5008;50.656;7.188;2023-02-21T21:36:58;41.70;;;27.13;;
9938;SDS011;5008;50.656;7.188;2023-02-21T21:39:26;42.80;;;28.07;;
9938;SDS011;5008;50.656;7.188;2023-02-21T21:41:57;44.37;;;27.47;;
9938;SDS011;5008;50.656;7.188;2023-02-21T21:44:30;42.53;;;27.60;;
9938;SDS011;5008;50.656;7.188;2023-02-21T21:46:57;45.40;;;26.70;;
9938;SDS011;5008;50.656;7.188;2023-02-21T21:49:25;42.70;;;24.50;;
9938;SDS011;5008;50.656;7.188;2023-02-21T21:51:54;41.37;;;24.87;;
9938;SDS011;5008;50.656;7.188;2023-02-21T21:54:21;39.00;;;24.90;;
9938;SDS011;5008;50.656;7.188;2023-02-21T21:56:49;40.47;;;24.03;;
9938;SDS011;5008;50.656;7.188;2023-02-21T21:59:19;38.40;;;24.57;;
